sensor_id;sensor_type;location;lat;lon;timestamp;P1;durP1;ratioP1;P2;durP2;ratioP2
76604;SDS011;73179;50.978;16.998;2024-02-21T00:01:14;16.25;;;5.88;;
76604;SDS011;73179;50.978;16.998;2024-02-21T00:03:42;16.95;;;4.90;;
76604;SDS011;73179;50.978;16.998;2024-02-21T00:06:08;17.60;;;4.72;;
76604;SDS011;73179;50.978;16.998;2024-02-21T00:08:34;9.65;;;4.30;;
76604;SDS011;73179;50.978;16.998;2024-02-21T00:11:00;16.08;;;4.68;;
76604;SDS011;73179;50.978;16.998;2024-02-21T00:13:26;16.15;;;5.10;;
76604;SDS011;73179;50.978;16.998;2024-02-21T00:15:52;15.52;;;5.72;;
76604;SDS011;73179;50.978;16.998;2024-02-21T00:18:18;15.90;;;4.95;;
76604;SDS011;73179;50.978;16.998;2024-02-21T00:20:45;13.15;;;4.82;;
76604;SDS011;73179;50.978;16.998;2024-02-21T00:26:02;18.10;;;4.15;;
76604;SDS011;73179;50.978;16.998;2024-02-21T00:28:28;9.02;;;4.93;;
76604;SDS011;73179;50.978;16.998;2024-02-21T00:30:54;10.90;;;4.00;;
76604;SDS011;73179;50.978;16.998;2024-02-21T00:33:20;14.88;;;4.28;;
76604;SDS011;73179;50.978;16.998;2024-02-21T00:35:46;16.55;;;4.63;;
76604;SDS011;73179;50.978;16.998;2024-02-21T00:38:12;8.23;;;3.33;;
76604;SDS011;73179;50.978;16.998;2024-02-21T00:40:38;13.60;;;3.72;;
76604;SDS011;73179;50.978;16.998;2024-02-21T00:43:04;11.40;;;4.07;;
76604;SDS011;73179;50.978;16.998;2024-02-21T00:45:30;11.40;;;3.92;;
76604;SDS011;73179;50.978;16.998;2024-02-21T00:47:56;12.85;;;4.30;;
76604;SDS011;73179;50.978;16.998;2024-02-21T00:50:22;9.63;;;4.50;;
76604;SDS011;73179;50.978;16.998;2024-02-21T00:52:48;13.30;;;3.83;;
76604;SDS011;73179;50.978;16.998;2024-02-21T00:55:14;13.52;;;4.60;;
76604;SDS011;73179;50.978;16.998;2024-02-21T00:57:41;20.77;;;5.03;;
76604;SDS011;73179;50.978;16.998;2024-02-21T01:00:07;10.55;;;3.83;;
76604;SDS011;73179;50.978;16.998;2024-02-21T01:02:33;16.25;;;5.10;;
76604;SDS011;73179;50.978;16.998;2024-02-21T01:05:00;14.50;;;4.85;;
76604;SDS011;73179;50.978;16.998;2024-02-21T01:07:27;16.77;;;5.18;;
76604;SDS011;73179;50.978;16.998;2024-02-21T01:09:53;16.88;;;5.30;;
76604;SDS011;73179;50.978;16.998;2024-02-21T01:12:20;16.15;;;5.65;;
76604;SDS011;73179;50.978;16.998;2024-02-21T01:14:46;13.70;;;5.63;;
76604;SDS011;73179;50.978;16.998;2024-02-21T01:17:12;10.63;;;5.00;;
76604;SDS011;73179;50.978;16.998;2024-02-21T01:19:38;16.35;;;6.47;;
76604;SDS011;73179;50.978;16.998;2024-02-21T01:22:05;14.18;;;5.93;;
76604;SDS011;73179;50.978;16.998;2024-02-21T01:24:31;16.33;;;5.63;;
76604;SDS011;73179;50.978;16.998;2024-02-21T01:26:57;13.65;;;5.70;;
76604;SDS011;73179;50.978;16.998;2024-02-21T01:29:23;10.15;;;4.65;;
76604;SDS011;73179;50.978;16.998;2024-02-21T01:31:49;10.45;;;4.82;;
76604;SDS011;73179;50.978;16.998;2024-02-21T01:34:15;14.15;;;5.63;;
76604;SDS011;73179;50.978;16.998;2024-02-21T01:36:42;14.65;;;5.38;;
76604;SDS011;73179;50.978;16.998;2024-02-21T01:39:07;13.82;;;4.82;;
76604;SDS011;73179;50.978;16.998;2024-02-21T01:41:34;15.13;;;5.63;;
76604;SDS011;73179;50.978;16.998;2024-02-21T01:44:00;11.07;;;5.63;;
76604;SDS011;73179;50.978;16.998;2024-02-21T01:46:26;17.33;;;6.57;;
76604;SDS011;73179;50.978;16.998;2024-02-21T01:48:55;14.25;;;6.32;;
76604;SDS011;73179;50.978;16.998;2024-02-21T01:51:23;11.82;;;5.88;;
76604;SDS011;73179;50.978;16.998;2024-02-21T01:53:49;12.13;;;5.50;;
76604;SDS011;73179;50.978;16.998;2024-02-21T01:56:17;14.25;;;5.35;;
76604;SDS011;73179;50.978;16.998;2024-02-21T01:58:43;13.40;;;6.40;;
76604;SDS011;73179;50.978;16.998;2024-02-21T02:01:12;12.25;;;5.22;;
76604;SDS011;73179;50.978;16.998;2024-02-21T02:03:38;11.73;;;5.68;;
76604;SDS011;73179;50.978;16.998;2024-02-21T02:06:05;10.30;;;4.85;;
76604;SDS011;73179;50.978;16.998;2024-02-21T02:08:34;13.50;;;5.03;;
76604;SDS011;73179;50.978;16.998;2024-02-21T02:11:01;13.48;;;5.43;;
76604;SDS011;73179;50.978;16.998;2024-02-21T02:13:27;11.35;;;5.63;;
76604;SDS011;73179;50.978;16.998;2024-02-21T02:15:54;20.20;;;6.65;;
76604;SDS011;73179;50.978;16.998;2024-02-21T02:18:20;8.75;;;5.18;;
76604;SDS011;73179;50.978;16.998;2024-02-21T02:20:47;12.55;;;4.68;;
76604;SDS011;73179;50.978;16.998;2024-02-21T02:25:47;12.13;;;4.38;;
76604;SDS011;73179;50.978;16.998;2024-02-21T02:28:17;15.23;;;5.50;;
76604;SDS011;73179;50.978;16.998;2024-02-21T02:30:44;14.13;;;6.22;;
76604;SDS011;73179;50.978;16.998;2024-02-21T02:33:10;8.98;;;4.85;;
76604;SDS011;73179;50.978;16.998;2024-02-21T02:35:37;14.07;;;5.32;;
76604;SDS011;73179;50.978;16.998;2024-02-21T02:38:03;11.65;;;5.00;;
76604;SDS011;73179;50.978;16.998;2024-02-21T02:40:30;14.50;;;5.03;;
76604;SDS011;73179;50.978;16.998;2024-02-21T02:42:56;11.02;;;4.80;;
76604;SDS011;73179;50.978;16.998;2024-02-21T02:45:23;9.70;;;5.40;;
76604;SDS011;73179;50.978;16.998;2024-02-21T02:47:54;14.70;;;6.30;;
76604;SDS011;73179;50.978;16.998;2024-02-21T02:50:23;11.63;;;5.13;;
76604;SDS011;73179;50.978;16.998;2024-02-21T02:52:49;8.40;;;4.93;;
76604;SDS011;73179;50.978;16.998;2024-02-21T02:55:15;8.40;;;4.93;;
76604;SDS011;73179;50.978;16.998;2024-02-21T02:57:42;13.30;;;6.28;;
76604;SDS011;73179;50.978;16.998;2024-02-21T03:00:09;11.65;;;5.32;;
76604;SDS011;73179;50.978;16.998;2024-02-21T03:02:37;12.27;;;4.95;;
76604;SDS011;73179;50.978;16.998;2024-02-21T03:05:12;8.85;;;4.50;;
76604;SDS011;73179;50.978;16.998;2024-02-21T03:07:42;12.48;;;6.07;;
76604;SDS011;73179;50.978;16.998;2024-02-21T03:10:09;10.75;;;5.80;;
76604;SDS011;73179;50.978;16.998;2024-02-21T03:12:36;12.98;;;5.30;;
76604;SDS011;73179;50.978;16.998;2024-02-21T03:15:03;13.25;;;5.45;;
76604;SDS011;73179;50.978;16.998;2024-02-21T03:17:30;13.82;;;5.78;;
76604;SDS011;73179;50.978;16.998;2024-02-21T03:19:57;12.95;;;6.63;;
76604;SDS011;73179;50.978;16.998;2024-02-21T03:22:24;11.82;;;5.68;;
76604;SDS011;73179;50.978;16.998;2024-02-21T03:24:50;14.10;;;7.00;;
76604;SDS011;73179;50.978;16.998;2024-02-21T03:27:16;16.38;;;6.63;;
76604;SDS011;73179;50.978;16.998;2024-02-21T03:29:43;21.10;;;7.20;;
76604;SDS011;73179;50.978;16.998;2024-02-21T03:32:09;20.60;;;7.75;;
76604;SDS011;73179;50.978;16.998;2024-02-21T03:34:36;17.23;;;7.80;;
76604;SDS011;73179;50.978;16.998;2024-02-21T03:37:01;17.50;;;7.28;;
76604;SDS011;73179;50.978;16.998;2024-02-21T03:39:30;23.67;;;7.53;;
76604;SDS011;73179;50.978;16.998;2024-02-21T03:41:58;19.20;;;7.32;;
76604;SDS011;73179;50.978;16.998;2024-02-21T03:44:26;18.92;;;7.57;;
76604;SDS011;73179;50.978;16.998;2024-02-21T03:46:52;19.65;;;6.50;;
76604;SDS011;73179;50.978;16.998;2024-02-21T03:49:19;15.65;;;6.55;;
76604;SDS011;73179;50.978;16.998;2024-02-21T03:51:44;17.45;;;7.38;;
76604;SDS011;73179;50.978;16.998;2024-02-21T03:54:11;22.77;;;8.38;;
76604;SDS011;73179;50.978;16.998;2024-02-21T03:56:37;19.58;;;8.38;;
76604;SDS011;73179;50.978;16.998;2024-02-21T03:59:09;15.65;;;7.80;;
76604;SDS011;73179;50.978;16.998;2024-02-21T04:01:35;14.52;;;7.13;;
76604;SDS011;73179;50.978;16.998;2024-02-21T04:04:02;9.43;;;5.55;;
76604;SDS011;73179;50.978;16.998;2024-02-21T04:06:28;16.90;;;6.63;;
76604;SDS011;73179;50.978;16.998;2024-02-21T04:08:54;14.30;;;6.53;;
76604;SDS011;73179;50.978;16.998;2024-02-21T04:11:20;17.92;;;8.02;;
76604;SDS011;73179;50.978;16.998;2024-02-21T04:13:47;19.33;;;7.82;;
76604;SDS011;73179;50.978;16.998;2024-02-21T04:16:15;15.40;;;8.00;;
76604;SDS011;73179;50.978;16.998;2024-02-21T04:18:42;16.08;;;6.85;;
76604;SDS011;73179;50.978;16.998;2024-02-21T04:21:09;9.43;;;6.15;;
76604;SDS011;73179;50.978;16.998;2024-02-21T04:23:36;13.90;;;6.43;;
76604;SDS011;73179;50.978;16.998;2024-02-21T04:26:01;12.35;;;6.30;;
76604;SDS011;73179;50.978;16.998;2024-02-21T04:28:28;12.40;;;6.25;;
76604;SDS011;73179;50.978;16.998;2024-02-21T04:30:53;14.88;;;5.25;;
76604;SDS011;73179;50.978;16.998;2024-02-21T04:33:20;11.52;;;5.05;;
76604;SDS011;73179;50.978;16.998;2024-02-21T04:35:46;9.95;;;5.00;;
76604;SDS011;73179;50.978;16.998;2024-02-21T04:38:12;12.02;;;5.65;;
76604;SDS011;73179;50.978;16.998;2024-02-21T04:40:41;12.73;;;5.50;;
76604;SDS011;73179;50.978;16.998;2024-02-21T04:43:08;7.85;;;5.13;;
76604;SDS011;73179;50.978;16.998;2024-02-21T04:45:34;8.98;;;4.97;;
76604;SDS011;73179;50.978;16.998;2024-02-21T04:48:00;9.75;;;4.45;;
76604;SDS011;73179;50.978;16.998;2024-02-21T04:50:26;9.07;;;4.95;;
76604;SDS011;73179;50.978;16.998;2024-02-21T04:52:53;12.18;;;5.38;;
76604;SDS011;73179;50.978;16.998;2024-02-21T04:55:19;13.80;;;5.47;;
76604;SDS011;73179;50.978;16.998;2024-02-21T04:57:45;12.80;;;5.70;;
76604;SDS011;73179;50.978;16.998;2024-02-21T05:00:11;7.15;;;4.72;;
76604;SDS011;73179;50.978;16.998;2024-02-21T05:02:38;14.13;;;5.70;;
76604;SDS011;73179;50.978;16.998;2024-02-21T05:05:04;9.30;;;5.25;;
76604;SDS011;73179;50.978;16.998;2024-02-21T05:07:31;11.30;;;4.50;;
76604;SDS011;73179;50.978;16.998;2024-02-21T05:09:57;7.47;;;5.10;;
76604;SDS011;73179;50.978;16.998;2024-02-21T05:12:23;11.93;;;5.28;;
76604;SDS011;73179;50.978;16.998;2024-02-21T05:14:49;10.80;;;5.45;;
76604;SDS011;73179;50.978;16.998;2024-02-21T05:17:15;12.18;;;5.10;;
76604;SDS011;73179;50.978;16.998;2024-02-21T05:19:41;11.70;;;5.03;;
76604;SDS011;73179;50.978;16.998;2024-02-21T05:22:07;10.80;;;4.65;;
76604;SDS011;73179;50.978;16.998;2024-02-21T05:24:33;13.25;;;5.18;;
76604;SDS011;73179;50.978;16.998;2024-02-21T05:26:59;11.65;;;4.45;;
76604;SDS011;73179;50.978;16.998;2024-02-21T05:29:25;9.60;;;5.28;;
76604;SDS011;73179;50.978;16.998;2024-02-21T05:34:18;8.80;;;4.28;;
76604;SDS011;73179;50.978;16.998;2024-02-21T05:36:45;10.70;;;5.30;;
76604;SDS011;73179;50.978;16.998;2024-02-21T05:39:12;11.23;;;6.10;;
76604;SDS011;73179;50.978;16.998;2024-02-21T05:41:40;11.20;;;5.10;;
76604;SDS011;73179;50.978;16.998;2024-02-21T05:44:06;12.02;;;5.15;;
76604;SDS011;73179;50.978;16.998;2024-02-21T05:46:33;9.00;;;5.20;;
76604;SDS011;73179;50.978;16.998;2024-02-21T05:48:59;9.70;;;5.20;;
76604;SDS011;73179;50.978;16.998;2024-02-21T05:51:25;9.20;;;5.35;;
76604;SDS011;73179;50.978;16.998;2024-02-21T05:53:51;12.88;;;6.07;;
76604;SDS011;73179;50.978;16.998;2024-02-21T05:56:17;12.38;;;6.28;;
76604;SDS011;73179;50.978;16.998;2024-02-21T05:58:43;7.20;;;4.45;;
76604;SDS011;73179;50.978;16.998;2024-02-21T06:01:10;11.90;;;5.70;;
76604;SDS011;73179;50.978;16.998;2024-02-21T06:03:36;13.25;;;5.88;;
76604;SDS011;73179;50.978;16.998;2024-02-21T06:06:02;14.63;;;5.80;;
76604;SDS011;73179;50.978;16.998;2024-02-21T06:08:28;8.45;;;5.65;;
76604;SDS011;73179;50.978;16.998;2024-02-21T06:10:54;13.15;;;5.97;;
76604;SDS011;73179;50.978;16.998;2024-02-21T06:13:23;11.10;;;5.45;;
76604;SDS011;73179;50.978;16.998;2024-02-21T06:15:50;11.95;;;6.40;;
76604;SDS011;73179;50.978;16.998;2024-02-21T06:18:19;12.00;;;5.93;;
76604;SDS011;73179;50.978;16.998;2024-02-21T06:20:46;16.30;;;5.95;;
76604;SDS011;73179;50.978;16.998;2024-02-21T06:23:13;12.68;;;5.63;;
76604;SDS011;73179;50.978;16.998;2024-02-21T06:25:41;13.18;;;6.68;;
76604;SDS011;73179;50.978;16.998;2024-02-21T06:28:06;15.07;;;6.50;;
76604;SDS011;73179;50.978;16.998;2024-02-21T06:30:33;17.60;;;7.43;;
76604;SDS011;73179;50.978;16.998;2024-02-21T06:32:59;12.63;;;6.75;;
76604;SDS011;73179;50.978;16.998;2024-02-21T06:35:26;16.23;;;6.97;;
76604;SDS011;73179;50.978;16.998;2024-02-21T06:37:52;18.80;;;6.88;;
76604;SDS011;73179;50.978;16.998;2024-02-21T06:40:21;13.70;;;6.93;;
76604;SDS011;73179;50.978;16.998;2024-02-21T06:42:49;12.50;;;6.88;;
76604;SDS011;73179;50.978;16.998;2024-02-21T06:45:16;17.17;;;6.28;;
76604;SDS011;73179;50.978;16.998;2024-02-21T06:47:42;15.02;;;6.25;;
76604;SDS011;73179;50.978;16.998;2024-02-21T06:50:09;12.45;;;6.13;;
76604;SDS011;73179;50.978;16.998;2024-02-21T06:52:36;15.63;;;7.32;;
76604;SDS011;73179;50.978;16.998;2024-02-21T06:55:02;15.15;;;6.18;;
76604;SDS011;73179;50.978;16.998;2024-02-21T06:57:29;13.57;;;6.45;;
76604;SDS011;73179;50.978;16.998;2024-02-21T06:59:55;10.45;;;6.45;;
76604;SDS011;73179;50.978;16.998;2024-02-21T07:02:21;16.45;;;6.70;;
76604;SDS011;73179;50.978;16.998;2024-02-21T07:04:47;15.80;;;6.55;;
76604;SDS011;73179;50.978;16.998;2024-02-21T07:07:13;13.68;;;6.47;;
76604;SDS011;73179;50.978;16.998;2024-02-21T07:09:39;12.52;;;6.32;;
76604;SDS011;73179;50.978;16.998;2024-02-21T07:12:05;20.73;;;7.45;;
76604;SDS011;73179;50.978;16.998;2024-02-21T07:14:32;13.43;;;7.20;;
76604;SDS011;73179;50.978;16.998;2024-02-21T07:16:58;15.35;;;6.20;;
76604;SDS011;73179;50.978;16.998;2024-02-21T07:19:24;13.70;;;6.43;;
76604;SDS011;73179;50.978;16.998;2024-02-21T07:21:50;16.90;;;6.97;;
76604;SDS011;73179;50.978;16.998;2024-02-21T07:24:17;14.60;;;6.18;;
76604;SDS011;73179;50.978;16.998;2024-02-21T07:26:43;13.63;;;6.22;;
76604;SDS011;73179;50.978;16.998;2024-02-21T07:29:09;15.73;;;6.72;;
76604;SDS011;73179;50.978;16.998;2024-02-21T07:31:40;15.77;;;7.47;;
76604;SDS011;73179;50.978;16.998;2024-02-21T07:34:09;14.65;;;7.47;;
76604;SDS011;73179;50.978;16.998;2024-02-21T07:36:35;12.40;;;7.40;;
76604;SDS011;73179;50.978;16.998;2024-02-21T07:39:03;16.83;;;7.68;;
76604;SDS011;73179;50.978;16.998;2024-02-21T07:41:30;14.90;;;7.30;;
76604;SDS011;73179;50.978;16.998;2024-02-21T07:43:57;19.52;;;7.22;;
76604;SDS011;73179;50.978;16.998;2024-02-21T07:46:23;13.70;;;8.05;;
76604;SDS011;73179;50.978;16.998;2024-02-21T07:48:50;14.73;;;7.40;;
76604;SDS011;73179;50.978;16.998;2024-02-21T07:51:16;15.77;;;7.60;;
76604;SDS011;73179;50.978;16.998;2024-02-21T07:53:44;18.42;;;8.90;;
76604;SDS011;73179;50.978;16.998;2024-02-21T07:56:11;11.15;;;7.45;;
76604;SDS011;73179;50.978;16.998;2024-02-21T07:58:38;11.98;;;6.88;;
76604;SDS011;73179;50.978;16.998;2024-02-21T08:01:03;13.35;;;7.57;;
76604;SDS011;73179;50.978;16.998;2024-02-21T08:03:30;13.60;;;5.85;;
76604;SDS011;73179;50.978;16.998;2024-02-21T08:05:56;16.98;;;7.97;;
76604;SDS011;73179;50.978;16.998;2024-02-21T08:08:22;16.23;;;7.18;;
76604;SDS011;73179;50.978;16.998;2024-02-21T08:10:51;17.80;;;7.47;;
76604;SDS011;73179;50.978;16.998;2024-02-21T08:13:17;12.68;;;6.45;;
76604;SDS011;73179;50.978;16.998;2024-02-21T08:15:43;17.35;;;7.07;;
76604;SDS011;73179;50.978;16.998;2024-02-21T08:18:10;14.02;;;7.65;;
76604;SDS011;73179;50.978;16.998;2024-02-21T08:20:36;13.18;;;7.55;;
76604;SDS011;73179;50.978;16.998;2024-02-21T08:23:02;15.93;;;8.32;;
76604;SDS011;73179;50.978;16.998;2024-02-21T08:25:28;14.07;;;7.57;;
76604;SDS011;73179;50.978;16.998;2024-02-21T08:27:57;21.00;;;7.70;;
76604;SDS011;73179;50.978;16.998;2024-02-21T08:30:24;20.52;;;7.95;;
76604;SDS011;73179;50.978;16.998;2024-02-21T08:32:50;17.30;;;7.85;;
76604;SDS011;73179;50.978;16.998;2024-02-21T08:35:16;18.00;;;8.13;;
76604;SDS011;73179;50.978;16.998;2024-02-21T08:37:47;16.60;;;7.45;;
76604;SDS011;73179;50.978;16.998;2024-02-21T08:40:14;20.67;;;8.73;;
76604;SDS011;73179;50.978;16.998;2024-02-21T08:42:43;14.52;;;7.30;;
76604;SDS011;73179;50.978;16.998;2024-02-21T08:45:09;20.45;;;8.27;;
76604;SDS011;73179;50.978;16.998;2024-02-21T08:47:36;15.10;;;8.27;;
76604;SDS011;73179;50.978;16.998;2024-02-21T08:50:05;21.95;;;9.13;;
76604;SDS011;73179;50.978;16.998;2024-02-21T08:52:32;16.15;;;8.00;;
76604;SDS011;73179;50.978;16.998;2024-02-21T08:54:58;13.77;;;6.70;;
76604;SDS011;73179;50.978;16.998;2024-02-21T08:57:24;18.65;;;8.35;;
76604;SDS011;73179;50.978;16.998;2024-02-21T08:59:50;16.45;;;8.13;;
76604;SDS011;73179;50.978;16.998;2024-02-21T09:02:16;18.55;;;8.27;;
76604;SDS011;73179;50.978;16.998;2024-02-21T09:04:42;16.48;;;7.50;;
76604;SDS011;73179;50.978;16.998;2024-02-21T09:07:12;20.38;;;8.23;;
76604;SDS011;73179;50.978;16.998;2024-02-21T09:09:38;15.63;;;8.40;;
76604;SDS011;73179;50.978;16.998;2024-02-21T09:12:08;18.17;;;8.88;;
76604;SDS011;73179;50.978;16.998;2024-02-21T09:14:36;18.40;;;8.80;;
76604;SDS011;73179;50.978;16.998;2024-02-21T09:17:06;23.52;;;9.65;;
76604;SDS011;73179;50.978;16.998;2024-02-21T09:19:33;18.75;;;10.10;;
76604;SDS011;73179;50.978;16.998;2024-02-21T09:22:01;22.15;;;7.95;;
76604;SDS011;73179;50.978;16.998;2024-02-21T09:24:27;13.27;;;7.72;;
76604;SDS011;73179;50.978;16.998;2024-02-21T09:26:53;15.95;;;6.38;;
76604;SDS011;73179;50.978;16.998;2024-02-21T09:29:19;15.60;;;8.05;;
76604;SDS011;73179;50.978;16.998;2024-02-21T09:31:45;16.20;;;8.60;;
76604;SDS011;73179;50.978;16.998;2024-02-21T09:34:13;17.42;;;7.53;;
76604;SDS011;73179;50.978;16.998;2024-02-21T09:36:39;14.60;;;7.30;;
76604;SDS011;73179;50.978;16.998;2024-02-21T09:39:05;16.52;;;8.30;;
76604;SDS011;73179;50.978;16.998;2024-02-21T09:41:32;15.60;;;7.55;;
76604;SDS011;73179;50.978;16.998;2024-02-21T09:44:05;22.88;;;8.95;;
76604;SDS011;73179;50.978;16.998;2024-02-21T09:49:32;16.17;;;8.88;;
76604;SDS011;73179;50.978;16.998;2024-02-21T09:52:03;13.02;;;8.65;;
76604;SDS011;73179;50.978;16.998;2024-02-21T09:54:30;18.55;;;9.10;;
76604;SDS011;73179;50.978;16.998;2024-02-21T09:56:59;17.63;;;9.32;;
76604;SDS011;73179;50.978;16.998;2024-02-21T09:59:26;20.05;;;9.27;;
76604;SDS011;73179;50.978;16.998;2024-02-21T10:01:54;19.95;;;9.65;;
76604;SDS011;73179;50.978;16.998;2024-02-21T10:04:20;15.80;;;9.50;;
76604;SDS011;73179;50.978;16.998;2024-02-21T10:06:47;15.88;;;8.48;;
76604;SDS011;73179;50.978;16.998;2024-02-21T10:09:23;17.45;;;9.20;;
76604;SDS011;73179;50.978;16.998;2024-02-21T10:11:49;15.23;;;8.80;;
76604;SDS011;73179;50.978;16.998;2024-02-21T10:14:16;18.20;;;8.75;;
76604;SDS011;73179;50.978;16.998;2024-02-21T10:16:47;18.23;;;9.63;;
76604;SDS011;73179;50.978;16.998;2024-02-21T10:19:21;14.52;;;8.60;;
76604;SDS011;73179;50.978;16.998;2024-02-21T10:22:00;15.63;;;9.95;;
76604;SDS011;73179;50.978;16.998;2024-02-21T10:24:30;15.90;;;8.80;;
76604;SDS011;73179;50.978;16.998;2024-02-21T10:27:06;16.33;;;9.95;;
76604;SDS011;73179;50.978;16.998;2024-02-21T10:29:39;14.73;;;8.00;;
76604;SDS011;73179;50.978;16.998;2024-02-21T10:32:09;18.02;;;11.05;;
76604;SDS011;73179;50.978;16.998;2024-02-21T10:34:37;18.02;;;8.77;;
76604;SDS011;73179;50.978;16.998;2024-02-21T10:37:08;17.45;;;9.55;;
76604;SDS011;73179;50.978;16.998;2024-02-21T10:39:37;13.50;;;8.88;;
76604;SDS011;73179;50.978;16.998;2024-02-21T10:42:04;18.77;;;9.25;;
76604;SDS011;73179;50.978;16.998;2024-02-21T10:44:31;17.83;;;10.02;;
76604;SDS011;73179;50.978;16.998;2024-02-21T10:46:58;14.43;;;9.80;;
76604;SDS011;73179;50.978;16.998;2024-02-21T10:49:25;16.35;;;9.40;;
76604;SDS011;73179;50.978;16.998;2024-02-21T10:52:44;22.25;;;9.63;;
76604;SDS011;73179;50.978;16.998;2024-02-21T10:54:55;17.73;;;9.20;;
76604;SDS011;73179;50.978;16.998;2024-02-21T10:57:24;16.92;;;8.52;;
76604;SDS011;73179;50.978;16.998;2024-02-21T10:59:53;16.02;;;8.85;;
76604;SDS011;73179;50.978;16.998;2024-02-21T11:02:21;20.63;;;9.88;;
76604;SDS011;73179;50.978;16.998;2024-02-21T11:04:48;17.95;;;9.45;;
76604;SDS011;73179;50.978;16.998;2024-02-21T11:07:16;13.73;;;8.88;;
76604;SDS011;73179;50.978;16.998;2024-02-21T11:09:50;14.98;;;8.18;;
76604;SDS011;73179;50.978;16.998;2024-02-21T11:12:21;17.45;;;9.60;;
76604;SDS011;73179;50.978;16.998;2024-02-21T11:14:47;16.95;;;9.60;;
76604;SDS011;73179;50.978;16.998;2024-02-21T11:17:17;14.05;;;8.10;;
76604;SDS011;73179;50.978;16.998;2024-02-21T11:19:44;16.10;;;10.23;;
76604;SDS011;73179;50.978;16.998;2024-02-21T11:22:14;14.32;;;8.48;;
76604;SDS011;73179;50.978;16.998;2024-02-21T11:24:46;11.77;;;7.55;;
76604;SDS011;73179;50.978;16.998;2024-02-21T11:29:48;11.75;;;7.78;;
76604;SDS011;73179;50.978;16.998;2024-02-21T11:32:17;12.27;;;7.13;;
76604;SDS011;73179;50.978;16.998;2024-02-21T11:34:55;14.32;;;7.43;;
76604;SDS011;73179;50.978;16.998;2024-02-21T11:37:32;15.52;;;7.95;;
76604;SDS011;73179;50.978;16.998;2024-02-21T11:39:59;11.10;;;7.07;;
76604;SDS011;73179;50.978;16.998;2024-02-21T11:42:26;13.18;;;7.20;;
76604;SDS011;73179;50.978;16.998;2024-02-21T11:44:54;11.23;;;7.72;;
76604;SDS011;73179;50.978;16.998;2024-02-21T11:47:24;13.02;;;7.43;;
76604;SDS011;73179;50.978;16.998;2024-02-21T11:49:50;12.05;;;6.78;;
76604;SDS011;73179;50.978;16.998;2024-02-21T11:52:23;11.23;;;6.15;;
76604;SDS011;73179;50.978;16.998;2024-02-21T11:54:51;10.98;;;6.63;;
76604;SDS011;73179;50.978;16.998;2024-02-21T11:57:18;6.88;;;4.57;;
76604;SDS011;73179;50.978;16.998;2024-02-21T11:59:44;7.63;;;4.93;;
76604;SDS011;73179;50.978;16.998;2024-02-21T12:02:12;7.57;;;4.28;;
76604;SDS011;73179;50.978;16.998;2024-02-21T12:04:39;10.15;;;4.97;;
76604;SDS011;73179;50.978;16.998;2024-02-21T12:07:05;9.20;;;4.53;;
76604;SDS011;73179;50.978;16.998;2024-02-21T12:09:34;10.13;;;5.00;;
76604;SDS011;73179;50.978;16.998;2024-02-21T12:12:02;9.20;;;4.80;;
76604;SDS011;73179;50.978;16.998;2024-02-21T12:14:30;9.85;;;5.72;;
76604;SDS011;73179;50.978;16.998;2024-02-21T12:17:01;7.78;;;4.82;;
76604;SDS011;73179;50.978;16.998;2024-02-21T12:19:29;10.65;;;5.00;;
76604;SDS011;73179;50.978;16.998;2024-02-21T12:21:58;6.80;;;5.25;;
76604;SDS011;73179;50.978;16.998;2024-02-21T12:24:26;5.90;;;4.50;;
76604;SDS011;73179;50.978;16.998;2024-02-21T12:26:54;8.95;;;5.40;;
76604;SDS011;73179;50.978;16.998;2024-02-21T12:29:22;9.50;;;5.30;;
76604;SDS011;73179;50.978;16.998;2024-02-21T12:31:52;8.18;;;4.70;;
76604;SDS011;73179;50.978;16.998;2024-02-21T12:34:20;11.93;;;5.95;;
76604;SDS011;73179;50.978;16.998;2024-02-21T12:36:47;16.52;;;6.55;;
76604;SDS011;73179;50.978;16.998;2024-02-21T12:39:13;14.55;;;7.47;;
76604;SDS011;73179;50.978;16.998;2024-02-21T12:41:42;17.08;;;6.70;;
76604;SDS011;73179;50.978;16.998;2024-02-21T12:44:10;12.30;;;5.80;;
76604;SDS011;73179;50.978;16.998;2024-02-21T12:46:40;10.38;;;5.07;;
76604;SDS011;73179;50.978;16.998;2024-02-21T12:49:05;8.85;;;5.20;;
76604;SDS011;73179;50.978;16.998;2024-02-21T12:51:34;11.00;;;5.50;;
76604;SDS011;73179;50.978;16.998;2024-02-21T12:54:01;8.90;;;5.35;;
76604;SDS011;73179;50.978;16.998;2024-02-21T12:56:30;9.43;;;5.35;;
76604;SDS011;73179;50.978;16.998;2024-02-21T12:58:57;8.18;;;5.60;;
76604;SDS011;73179;50.978;16.998;2024-02-21T13:01:23;11.52;;;6.25;;
76604;SDS011;73179;50.978;16.998;2024-02-21T13:03:49;7.97;;;5.18;;
76604;SDS011;73179;50.978;16.998;2024-02-21T13:06:16;11.20;;;5.60;;
76604;SDS011;73179;50.978;16.998;2024-02-21T13:08:42;9.38;;;5.25;;
76604;SDS011;73179;50.978;16.998;2024-02-21T13:11:10;12.02;;;6.10;;
76604;SDS011;73179;50.978;16.998;2024-02-21T13:13:36;8.20;;;6.28;;
76604;SDS011;73179;50.978;16.998;2024-02-21T13:16:03;9.65;;;5.82;;
76604;SDS011;73179;50.978;16.998;2024-02-21T13:18:29;10.88;;;5.65;;
76604;SDS011;73179;50.978;16.998;2024-02-21T13:20:55;10.60;;;5.97;;
76604;SDS011;73179;50.978;16.998;2024-02-21T13:23:21;8.70;;;6.47;;
76604;SDS011;73179;50.978;16.998;2024-02-21T13:25:48;8.80;;;5.72;;
76604;SDS011;73179;50.978;16.998;2024-02-21T13:28:14;7.75;;;5.53;;
76604;SDS011;73179;50.978;16.998;2024-02-21T13:30:42;9.32;;;5.75;;
76604;SDS011;73179;50.978;16.998;2024-02-21T13:33:08;11.48;;;5.60;;
76604;SDS011;73179;50.978;16.998;2024-02-21T13:35:35;11.45;;;6.63;;
76604;SDS011;73179;50.978;16.998;2024-02-21T13:38:02;11.85;;;6.28;;
76604;SDS011;73179;50.978;16.998;2024-02-21T13:40:29;10.85;;;7.32;;
76604;SDS011;73179;50.978;16.998;2024-02-21T13:42:55;11.35;;;6.57;;
76604;SDS011;73179;50.978;16.998;2024-02-21T13:45:22;12.23;;;7.50;;
76604;SDS011;73179;50.978;16.998;2024-02-21T13:47:48;12.40;;;6.70;;
76604;SDS011;73179;50.978;16.998;2024-02-21T13:50:14;9.98;;;5.88;;
76604;SDS011;73179;50.978;16.998;2024-02-21T13:52:40;11.48;;;6.47;;
76604;SDS011;73179;50.978;16.998;2024-02-21T13:55:07;11.18;;;6.28;;
76604;SDS011;73179;50.978;16.998;2024-02-21T13:57:36;9.70;;;5.75;;
76604;SDS011;73179;50.978;16.998;2024-02-21T14:00:05;9.30;;;5.60;;
76604;SDS011;73179;50.978;16.998;2024-02-21T14:02:36;14.00;;;5.97;;
76604;SDS011;73179;50.978;16.998;2024-02-21T14:05:03;13.27;;;6.07;;
76604;SDS011;73179;50.978;16.998;2024-02-21T14:07:31;8.98;;;6.18;;
76604;SDS011;73179;50.978;16.998;2024-02-21T14:09:59;11.90;;;6.88;;
76604;SDS011;73179;50.978;16.998;2024-02-21T14:12:24;10.70;;;6.22;;
76604;SDS011;73179;50.978;16.998;2024-02-21T14:14:51;13.60;;;6.32;;
76604;SDS011;73179;50.978;16.998;2024-02-21T14:17:17;11.38;;;5.68;;
76604;SDS011;73179;50.978;16.998;2024-02-21T14:19:44;10.45;;;5.82;;
76604;SDS011;73179;50.978;16.998;2024-02-21T14:22:10;11.38;;;6.20;;
76604;SDS011;73179;50.978;16.998;2024-02-21T14:24:37;9.60;;;6.43;;
76604;SDS011;73179;50.978;16.998;2024-02-21T14:27:03;10.85;;;6.75;;
76604;SDS011;73179;50.978;16.998;2024-02-21T14:29:30;11.95;;;6.38;;
76604;SDS011;73179;50.978;16.998;2024-02-21T14:31:56;8.95;;;5.88;;
76604;SDS011;73179;50.978;16.998;2024-02-21T14:34:22;9.93;;;6.45;;
76604;SDS011;73179;50.978;16.998;2024-02-21T14:36:48;12.75;;;6.85;;